createdAt,value
2023-04-13T00:00:10.877Z,68.67
2023-04-13T00:02:39.274Z,69.51
2023-04-13T00:05:07.662Z,69.06
2023-04-13T00:07:34.236Z,66.24
2023-04-13T00:10:03.178Z,66.04
2023-04-13T00:12:30.693Z,65.12
2023-04-13T00:14:57.576Z,64.21
2023-04-13T00:17:25.793Z,64.38
2023-04-13T00:19:57.619Z,62.88
2023-04-13T00:22:25.184Z,63.42
2023-04-13T00:24:55.295Z,63.36
2023-04-13T00:27:23.204Z,63.73
2023-04-13T00:29:49.757Z,63.11
2023-04-13T00:32:16.289Z,64.34
2023-04-13T00:34:42.870Z,64.01
2023-04-13T00:37:09.386Z,63.93
2023-04-13T00:39:35.812Z,64.59
2023-04-13T00:42:03.599Z,64.93
2023-04-13T00:44:30.782Z,65.80
2023-04-13T00:46:57.319Z,67.43
2023-04-13T00:49:23.884Z,66.94
2023-04-13T00:51:50.980Z,66.78
2023-04-13T00:54:18.549Z,67.13
2023-04-13T00:56:45.721Z,69.45
2023-04-13T00:59:12.502Z,70.88
2023-04-13T01:01:46.600Z,75.84
2023-04-13T01:04:13.995Z,76.81
2023-04-13T01:06:45.140Z,79.47
2023-04-13T01:09:15.387Z,81.99
2023-04-13T01:11:54.208Z,82.85
2023-04-13T01:14:20.759Z,85.89
2023-04-13T01:16:51.145Z,85.01
2023-04-13T01:19:40.777Z,86.33
2023-04-13T01:22:08.714Z,87.66
2023-04-13T01:24:35.431Z,87.78
2023-04-13T01:27:13.018Z,88.73
2023-04-13T01:29:40.277Z,90.04
2023-04-13T01:32:08.613Z,91.49
2023-04-13T01:34:35.794Z,94.69
2023-04-13T01:37:06.616Z,95.24
2023-04-13T01:39:34.072Z,96.21
2023-04-13T01:42:08.446Z,94.84
2023-04-13T01:44:35.726Z,94.62
2023-04-13T01:47:15.675Z,93.94
2023-04-13T01:50:13.293Z,94.83
2023-04-13T01:52:55.266Z,96.00
2023-04-13T01:55:23.265Z,95.47
2023-04-13T01:57:55.088Z,95.95
2023-04-13T02:00:22.211Z,96.60
2023-04-13T02:02:49.654Z,98.24
2023-04-13T02:05:16.413Z,99.18
2023-04-13T02:07:45.383Z,100.00
2023-04-13T02:10:12.004Z,100.00
2023-04-13T02:12:38.577Z,99.68
2023-04-13T02:15:06.649Z,100.00
2023-04-13T02:17:33.227Z,100.00
2023-04-13T02:20:00.366Z,100.00
2023-04-13T02:22:27.465Z,100.00
2023-04-13T02:24:55.186Z,99.58
2023-04-13T02:27:24.098Z,98.43
2023-04-13T02:29:52.491Z,99.11
2023-04-13T02:32:19.350Z,99.82
2023-04-13T02:34:46.248Z,100.00
2023-04-13T02:37:13.330Z,99.80
2023-04-13T02:39:39.848Z,100.00
2023-04-13T02:42:07.918Z,99.18
2023-04-13T02:44:34.645Z,98.51
2023-04-13T02:47:01.416Z,99.08
2023-04-13T02:49:28.180Z,100.00
2023-04-13T02:52:13.087Z,99.81
2023-04-13T02:54:54.761Z,100.00
2023-04-13T02:57:25.404Z,100.00
2023-04-13T02:59:53.934Z,100.00
2023-04-13T03:02:23.386Z,100.00
2023-04-13T03:04:51.128Z,98.62
2023-04-13T03:07:18.683Z,99.31
2023-04-13T03:09:49.652Z,99.84
2023-04-13T03:12:17.134Z,100.00
2023-04-13T03:14:45.715Z,99.87
2023-04-13T03:17:12.584Z,100.00
2023-04-13T03:19:41.924Z,100.00
2023-04-13T03:22:10.012Z,100.00
2023-04-13T03:24:42.440Z,99.93
2023-04-13T03:27:11.082Z,99.88
2023-04-13T03:29:43.322Z,100.00
2023-04-13T03:32:14.592Z,100.00
2023-04-13T03:34:45.966Z,100.00
2023-04-13T03:37:13.815Z,100.00
2023-04-13T03:39:40.869Z,100.00
2023-04-13T03:42:13.705Z,100.00
2023-04-13T03:44:46.065Z,100.00
2023-04-13T03:47:12.595Z,100.00
2023-04-13T03:49:39.589Z,100.00
2023-04-13T03:52:06.219Z,100.00
2023-04-13T03:54:38.088Z,100.00
2023-04-13T03:57:04.965Z,100.00
2023-04-13T03:59:33.340Z,100.00
2023-04-13T04:02:02.700Z,100.00
2023-04-13T04:04:29.872Z,100.00
2023-04-13T04:06:57.883Z,100.00
2023-04-13T04:09:24.824Z,100.00
2023-04-13T04:11:51.492Z,100.00
2023-04-13T04:14:25.729Z,100.00
2023-04-13T04:16:59.027Z,100.00
2023-04-13T04:19:25.650Z,100.00
2023-04-13T04:21:52.885Z,100.00
2023-04-13T04:24:22.699Z,100.00
2023-04-13T04:26:56.058Z,100.00
2023-04-13T04:29:34.267Z,100.00
2023-04-13T04:32:11.109Z,100.00
2023-04-13T04:34:38.893Z,100.00
2023-04-13T04:37:19.715Z,100.00
2023-04-13T04:39:54.264Z,100.00
2023-04-13T04:42:20.877Z,100.00
2023-04-13T04:44:50.234Z,100.00
2023-04-13T04:47:19.721Z,100.00
2023-04-13T04:50:09.641Z,100.00
2023-04-13T04:52:39.273Z,100.00
2023-04-13T04:55:06.563Z,100.00
2023-04-13T04:57:35.661Z,100.00
2023-04-13T05:00:15.444Z,100.00
2023-04-13T05:02:44.416Z,100.00
2023-04-13T05:05:12.733Z,100.00
2023-04-13T05:07:39.796Z,100.00
2023-04-13T05:10:07.725Z,100.00
2023-04-13T05:12:37.786Z,100.00
2023-04-13T05:15:04.972Z,100.00
2023-04-13T05:17:31.653Z,100.00
2023-04-13T05:19:58.184Z,100.00
2023-04-13T05:22:36.307Z,100.00
2023-04-13T05:25:06.645Z,100.00
2023-04-13T05:27:33.145Z,100.00
2023-04-13T05:29:59.749Z,100.00
2023-04-13T05:32:26.431Z,99.31
2023-04-13T05:34:55.899Z,96.74
2023-04-13T05:37:25.591Z,96.81
2023-04-13T05:39:52.330Z,96.20
2023-04-13T05:42:24.856Z,98.41
2023-04-13T05:44:51.599Z,100.00
2023-04-13T05:47:22.990Z,100.00
2023-04-13T05:49:54.130Z,100.00
2023-04-13T05:52:22.182Z,99.67
2023-04-13T05:54:50.203Z,100.00
2023-04-13T05:57:20.965Z,100.00
2023-04-13T05:59:50.993Z,99.86
2023-04-13T06:02:22.572Z,99.98
2023-04-13T06:04:53.648Z,99.51
2023-04-13T06:07:23.588Z,98.73
2023-04-13T06:09:50.051Z,97.69
2023-04-13T06:12:18.240Z,99.90
2023-04-13T06:14:45.454Z,100.00
2023-04-13T06:17:12.042Z,100.00
2023-04-13T06:19:38.504Z,100.00
2023-04-13T06:22:05.309Z,99.49
2023-04-13T06:24:35.504Z,98.55
2023-04-13T06:27:02.006Z,98.52
2023-04-13T06:29:28.607Z,100.00
2023-04-13T06:32:04.607Z,99.73
2023-04-13T06:34:31.247Z,99.57
2023-04-13T06:36:58.192Z,99.01
2023-04-13T06:39:28.796Z,99.52
2023-04-13T06:42:01.021Z,98.77
2023-04-13T06:44:47.729Z,97.70
2023-04-13T06:47:16.042Z,98.40
2023-04-13T06:49:43.969Z,98.44
2023-04-13T06:52:11.103Z,98.26
2023-04-13T06:54:37.610Z,99.09
2023-04-13T06:57:13.443Z,97.64
2023-04-13T06:59:40.897Z,98.60
2023-04-13T07:02:09.623Z,97.88
2023-04-13T07:04:37.461Z,97.97
2023-04-13T07:07:04.251Z,99.38
2023-04-13T07:09:31.754Z,98.71
2023-04-13T07:12:02.332Z,97.29
2023-04-13T07:14:32.470Z,96.65
2023-04-13T07:16:59.157Z,96.22
2023-04-13T07:19:27.264Z,96.85
2023-04-13T07:21:53.785Z,98.33
2023-04-13T07:24:20.560Z,97.52
2023-04-13T07:26:47.798Z,98.34
2023-04-13T07:29:16.220Z,97.81
2023-04-13T07:31:48.842Z,97.62
2023-04-13T07:34:16.312Z,97.78
2023-04-13T07:36:45.932Z,97.79
2023-04-13T07:39:16.597Z,98.69
2023-04-13T07:41:47.409Z,98.31
2023-04-13T07:44:18.888Z,99.07
2023-04-13T07:46:45.720Z,99.23
2023-04-13T07:49:12.333Z,99.66
2023-04-13T07:51:40.776Z,100.00
2023-04-13T07:54:08.403Z,100.00
2023-04-13T07:56:36.427Z,99.63
2023-04-13T07:59:04.068Z,99.03
2023-04-13T08:01:31.600Z,98.63
2023-04-13T08:04:01.545Z,97.80
2023-04-13T08:06:28.728Z,97.50
2023-04-13T08:08:55.227Z,98.01
2023-04-13T08:11:23.754Z,95.61
2023-04-13T08:13:56.333Z,95.88
2023-04-13T08:16:22.871Z,95.17
2023-04-13T08:18:49.423Z,95.54
2023-04-13T08:21:17.644Z,93.70
2023-04-13T08:23:46.648Z,94.60
2023-04-13T08:26:20.373Z,95.02
2023-04-13T08:28:47.950Z,93.72
2023-04-13T08:31:15.733Z,96.45
2023-04-13T08:33:47.897Z,96.03
2023-04-13T08:36:14.531Z,95.61
2023-04-13T08:38:42.855Z,96.89
2023-04-13T08:41:12.088Z,98.37
2023-04-13T08:43:38.887Z,99.16
2023-04-13T08:46:07.804Z,100.00
2023-04-13T08:48:52.289Z,100.00
2023-04-13T08:51:22.940Z,97.98
2023-04-13T08:53:53.202Z,99.43
2023-04-13T08:56:38.400Z,99.09
2023-04-13T08:59:15.434Z,97.26
2023-04-13T09:01:46.305Z,95.80
2023-04-13T09:04:15.586Z,94.04
2023-04-13T09:06:46.009Z,91.34
2023-04-13T09:09:14.817Z,91.76
2023-04-13T09:11:42.868Z,92.19
2023-04-13T09:14:10.004Z,93.49
2023-04-13T09:16:43.435Z,94.60
2023-04-13T09:19:31.247Z,93.32
2023-04-13T09:21:57.817Z,90.81
2023-04-13T09:24:24.604Z,82.60
2023-04-13T09:26:51.160Z,85.94
2023-04-13T09:29:18.536Z,90.19
2023-04-13T09:31:46.484Z,90.05
2023-04-13T09:34:13.927Z,89.72
2023-04-13T09:36:53.452Z,91.05
2023-04-13T09:39:24.838Z,91.45
2023-04-13T09:41:52.992Z,90.90
2023-04-13T09:44:28.694Z,96.04
2023-04-13T09:46:59.525Z,87.79
2023-04-13T09:49:26.682Z,91.58
2023-04-13T09:51:54.482Z,92.60
2023-04-13T09:54:24.184Z,93.51
2023-04-13T09:56:56.316Z,92.79
2023-04-13T09:59:23.517Z,87.88
2023-04-13T10:01:51.300Z,88.04
2023-04-13T10:04:17.922Z,85.86
2023-04-13T10:06:45.591Z,91.21
2023-04-13T10:09:12.955Z,91.03
2023-04-13T10:11:46.737Z,90.97
2023-04-13T10:14:32.652Z,88.97
2023-04-13T10:17:12.766Z,89.89
2023-04-13T10:19:43.194Z,90.11
2023-04-13T10:22:10.190Z,85.85
2023-04-13T10:24:38.627Z,87.48
2023-04-13T10:27:21.880Z,85.48
2023-04-13T10:29:48.605Z,89.16
2023-04-13T10:32:23.033Z,90.24
2023-04-13T10:34:50.016Z,87.81
2023-04-13T10:37:21.019Z,89.34
2023-04-13T10:39:47.794Z,90.04
2023-04-13T10:42:16.490Z,87.11
2023-04-13T10:44:45.201Z,85.36
2023-04-13T10:47:13.268Z,84.44
2023-04-13T10:49:40.992Z,85.83
2023-04-13T10:52:08.987Z,87.24
2023-04-13T10:54:35.703Z,87.50
2023-04-13T10:57:03.572Z,88.97
2023-04-13T10:59:58.027Z,90.93
2023-04-13T11:02:29.788Z,93.14
2023-04-13T11:04:56.991Z,89.72
2023-04-13T11:07:23.987Z,87.82
2023-04-13T11:09:53.520Z,88.25
2023-04-13T11:12:20.097Z,89.34
2023-04-13T11:14:47.298Z,89.17
2023-04-13T11:17:14.553Z,87.27
2023-04-13T11:19:50.221Z,88.04
2023-04-13T11:22:22.601Z,86.08
2023-04-13T11:24:49.920Z,86.61
2023-04-13T11:27:17.523Z,88.42
2023-04-13T11:29:44.105Z,87.11
2023-04-13T11:32:18.664Z,84.92
2023-04-13T11:34:45.371Z,85.07
2023-04-13T11:37:11.860Z,85.56
2023-04-13T11:39:39.309Z,86.60
2023-04-13T11:42:07.013Z,83.13
2023-04-13T11:44:37.249Z,85.67
2023-04-13T11:47:04.064Z,83.48
2023-04-13T11:49:31.907Z,84.75
2023-04-13T11:51:59.330Z,85.42
2023-04-13T11:54:25.918Z,83.12
2023-04-13T11:56:52.413Z,80.69
2023-04-13T11:59:22.928Z,80.73
2023-04-13T12:01:52.510Z,84.06
2023-04-13T12:04:25.027Z,81.91
2023-04-13T12:06:53.197Z,77.52
2023-04-13T12:09:22.116Z,79.40
2023-04-13T12:12:15.092Z,82.11
2023-04-13T12:14:57.603Z,79.66
2023-04-13T12:17:39.253Z,79.37
2023-04-13T12:20:15.597Z,80.34
2023-04-13T12:22:52.449Z,78.35
2023-04-13T12:25:24.346Z,82.90
2023-04-13T12:27:52.295Z,82.15
2023-04-13T12:30:20.713Z,83.42
2023-04-13T12:32:48.221Z,82.84
2023-04-13T12:35:15.556Z,78.81
2023-04-13T12:37:46.118Z,77.31
2023-04-13T12:40:16.200Z,81.95
2023-04-13T12:42:43.646Z,83.76
2023-04-13T12:45:10.410Z,80.44
2023-04-13T12:47:37.286Z,78.72
2023-04-13T12:50:08.015Z,78.54
2023-04-13T12:52:34.886Z,79.59
2023-04-13T12:55:02.257Z,83.65
2023-04-13T12:57:29.355Z,83.79
2023-04-13T12:59:57.280Z,85.03
2023-04-13T13:02:24.548Z,81.95
2023-04-13T13:04:51.777Z,80.13
2023-04-13T13:07:19.099Z,83.08
2023-04-13T13:09:45.943Z,86.81
2023-04-13T13:12:12.826Z,85.88
2023-04-13T13:14:39.302Z,85.43
2023-04-13T13:17:05.747Z,84.97
2023-04-13T13:19:32.216Z,84.82
2023-04-13T13:21:59.734Z,87.07
2023-04-13T13:24:26.253Z,86.25
2023-04-13T13:27:24.560Z,85.70
2023-04-13T13:29:39.618Z,88.09
2023-04-13T13:32:06.623Z,90.67
2023-04-13T13:34:33.115Z,87.24
2023-04-13T13:36:59.613Z,85.65
2023-04-13T13:39:26.065Z,87.74
2023-04-13T13:41:52.618Z,84.78
2023-04-13T13:44:19.219Z,85.41
2023-04-13T13:46:46.262Z,85.27
2023-04-13T13:49:13.501Z,83.43
2023-04-13T13:51:58.395Z,85.53
2023-04-13T13:54:27.710Z,82.86
2023-04-13T13:56:54.185Z,83.44
2023-04-13T13:59:20.663Z,84.06
2023-04-13T14:01:47.233Z,88.55
2023-04-13T14:04:13.908Z,92.87
2023-04-13T14:06:40.457Z,92.48
2023-04-13T14:09:06.947Z,93.36
2023-04-13T14:11:34.226Z,91.41
2023-04-13T14:14:10.762Z,84.75
2023-04-13T14:16:41.305Z,85.81
2023-04-13T14:19:07.908Z,90.43
2023-04-13T14:21:35.095Z,90.22
2023-04-13T14:24:02.241Z,90.84
2023-04-13T14:26:28.767Z,91.64
2023-04-13T14:28:55.211Z,90.94
2023-04-13T14:31:22.072Z,91.78
2023-04-13T14:33:48.517Z,92.29
2023-04-13T14:36:16.701Z,94.12
2023-04-13T14:38:43.297Z,92.52
2023-04-13T14:41:09.792Z,92.44
2023-04-13T14:43:36.311Z,94.04
2023-04-13T14:46:04.075Z,94.65
2023-04-13T14:48:32.032Z,92.53
2023-04-13T14:50:58.645Z,92.99
2023-04-13T14:53:25.435Z,93.25
2023-04-13T14:55:52.006Z,93.89
2023-04-13T14:58:18.884Z,94.80
2023-04-13T15:00:45.485Z,94.31
2023-04-13T15:03:12.759Z,96.02
2023-04-13T15:05:40.344Z,93.76
2023-04-13T15:08:07.530Z,95.01
2023-04-13T15:10:37.179Z,95.61
2023-04-13T15:13:03.908Z,95.31
2023-04-13T15:15:31.672Z,94.98
2023-04-13T15:18:01.027Z,97.87
2023-04-13T15:20:29.040Z,97.73
2023-04-13T15:22:56.090Z,98.65
2023-04-13T15:25:22.916Z,96.20
2023-04-13T15:27:53.401Z,97.55
2023-04-13T15:30:32.676Z,98.44
2023-04-13T15:33:02.217Z,96.99
2023-04-13T15:35:29.383Z,98.06
2023-04-13T15:37:56.023Z,99.28
2023-04-13T15:40:24.894Z,99.59
2023-04-13T15:42:51.459Z,100.00
2023-04-13T15:45:18.978Z,100.00
2023-04-13T15:47:45.477Z,99.36
2023-04-13T15:50:12.442Z,98.61
2023-04-13T15:52:39.602Z,100.00
2023-04-13T15:55:06.808Z,100.00
2023-04-13T15:57:33.508Z,100.00
2023-04-13T16:00:00.035Z,100.00
2023-04-13T16:02:26.700Z,99.83
2023-04-13T16:04:53.926Z,100.00
2023-04-13T16:07:20.905Z,100.00
2023-04-13T16:09:48.202Z,99.77
2023-04-13T16:12:14.684Z,100.00
2023-04-13T16:14:45.330Z,100.00
2023-04-13T16:17:14.714Z,100.00
2023-04-13T16:19:41.329Z,99.67
2023-04-13T16:22:10.687Z,98.14
2023-04-13T16:24:37.803Z,99.70
2023-04-13T16:27:04.439Z,100.00
2023-04-13T16:29:32.383Z,100.00
2023-04-13T16:31:58.826Z,100.00
2023-04-13T16:34:27.778Z,100.00
2023-04-13T16:36:54.374Z,100.00
2023-04-13T16:39:21.820Z,100.00
2023-04-13T16:41:48.484Z,100.00
2023-04-13T16:44:14.992Z,100.00
2023-04-13T16:46:41.530Z,100.00
2023-04-13T16:49:08.070Z,100.00
2023-04-13T16:51:34.483Z,100.00
2023-04-13T16:54:03.079Z,100.00
2023-04-13T16:56:30.122Z,100.00
2023-04-13T16:58:56.887Z,100.00
2023-04-13T17:01:25.163Z,100.00
2023-04-13T17:03:52.988Z,100.00
2023-04-13T17:06:20.183Z,100.00
2023-04-13T17:08:46.745Z,100.00
2023-04-13T17:11:13.187Z,100.00
2023-04-13T17:13:39.869Z,100.00
2023-04-13T17:16:07.790Z,100.00
2023-04-13T17:18:34.333Z,100.00
2023-04-13T17:21:00.752Z,100.00
2023-04-13T17:23:27.285Z,100.00
2023-04-13T17:25:54.070Z,100.00
2023-04-13T17:28:21.928Z,100.00
2023-04-13T17:30:48.846Z,100.00
2023-04-13T17:33:16.473Z,100.00
2023-04-13T17:35:43.036Z,100.00
2023-04-13T17:38:09.535Z,100.00
2023-04-13T17:40:36.180Z,100.00
2023-04-13T17:43:02.652Z,100.00
2023-04-13T17:45:29.193Z,100.00
2023-04-13T17:47:56.019Z,100.00
2023-04-13T17:50:22.745Z,100.00
2023-04-13T17:52:49.688Z,100.00
2023-04-13T17:55:16.654Z,100.00
2023-04-13T17:57:43.095Z,100.00
2023-04-13T18:00:09.972Z,100.00
2023-04-13T18:02:39.244Z,100.00
2023-04-13T18:05:07.214Z,100.00
2023-04-13T18:07:33.766Z,100.00
2023-04-13T18:10:00.349Z,100.00
2023-04-13T18:12:26.848Z,100.00
2023-04-13T18:14:53.287Z,100.00
2023-04-13T18:17:21.413Z,100.00
2023-04-13T18:19:51.373Z,100.00
2023-04-13T18:22:18.003Z,100.00
2023-04-13T18:24:44.508Z,100.00
2023-04-13T18:27:12.037Z,100.00
2023-04-13T18:29:38.589Z,100.00
2023-04-13T18:32:05.616Z,100.00
2023-04-13T18:34:34.344Z,100.00
2023-04-13T18:37:01.596Z,100.00
2023-04-13T18:39:28.126Z,100.00
2023-04-13T18:41:54.858Z,100.00
2023-04-13T18:44:21.488Z,100.00
2023-04-13T18:46:48.140Z,100.00
2023-04-13T18:49:14.778Z,100.00
2023-04-13T18:51:41.281Z,100.00
2023-04-13T18:54:07.835Z,100.00
2023-04-13T18:56:34.405Z,100.00
2023-04-13T18:59:00.901Z,100.00
2023-04-13T19:01:27.427Z,100.00
2023-04-13T19:03:54.221Z,100.00
2023-04-13T19:06:20.840Z,100.00
2023-04-13T19:08:47.292Z,100.00
2023-04-13T19:11:16.053Z,100.00
2023-04-13T19:13:44.079Z,100.00
2023-04-13T19:16:11.100Z,100.00
2023-04-13T19:18:37.678Z,100.00
2023-04-13T19:21:06.607Z,100.00
2023-04-13T19:23:33.314Z,100.00
2023-04-13T19:25:59.864Z,100.00
2023-04-13T19:28:26.667Z,100.00
2023-04-13T19:30:53.253Z,100.00
2023-04-13T19:33:19.715Z,100.00
2023-04-13T19:35:46.524Z,100.00
2023-04-13T19:38:13.265Z,100.00
2023-04-13T19:40:40.228Z,100.00
2023-04-13T19:43:06.777Z,100.00
2023-04-13T19:45:33.316Z,100.00
2023-04-13T19:47:59.906Z,100.00
2023-04-13T19:50:26.450Z,100.00
2023-04-13T19:52:53.078Z,100.00
2023-04-13T19:55:19.601Z,100.00
2023-04-13T19:57:46.364Z,100.00
2023-04-13T20:00:20.400Z,100.00
2023-04-13T20:02:49.672Z,99.63
2023-04-13T20:05:17.004Z,100.00
2023-04-13T20:07:43.474Z,100.00
2023-04-13T20:10:11.110Z,99.96
2023-04-13T20:12:37.760Z,99.74
2023-04-13T20:15:04.542Z,100.00
2023-04-13T20:17:31.138Z,99.93
2023-04-13T20:19:57.742Z,99.92
2023-04-13T20:22:26.158Z,100.00
2023-04-13T20:24:52.928Z,100.00
2023-04-13T20:27:21.465Z,100.00
2023-04-13T20:29:48.893Z,100.00
2023-04-13T20:32:15.768Z,100.00
2023-04-13T20:34:42.835Z,100.00
2023-04-13T20:37:14.352Z,100.00
2023-04-13T20:39:50.057Z,100.00
2023-04-13T20:42:18.192Z,100.00
2023-04-13T20:44:45.844Z,100.00
2023-04-13T20:47:13.680Z,100.00
2023-04-13T20:49:46.799Z,100.00
2023-04-13T20:52:17.893Z,100.00
2023-04-13T20:54:44.469Z,100.00
2023-04-13T20:57:12.094Z,100.00
2023-04-13T20:59:38.619Z,100.00
2023-04-13T21:02:05.443Z,100.00
2023-04-13T21:04:31.972Z,100.00
2023-04-13T21:07:02.085Z,100.00
2023-04-13T21:09:29.236Z,100.00
2023-04-13T21:11:56.825Z,98.09
2023-04-13T21:14:24.773Z,98.60
2023-04-13T21:16:51.756Z,100.00
2023-04-13T21:19:18.515Z,98.33
2023-04-13T21:21:45.084Z,97.33
2023-04-13T21:24:11.577Z,95.96
2023-04-13T21:26:38.100Z,95.75
2023-04-13T21:29:04.717Z,97.26
2023-04-13T21:31:31.221Z,97.87
2023-04-13T21:33:59.864Z,95.81
2023-04-13T21:38:56.741Z,96.90
2023-04-13T21:41:23.248Z,96.56
2023-04-13T21:43:49.957Z,95.82
2023-04-13T21:46:16.844Z,96.53
2023-04-13T21:48:43.428Z,97.23
2023-04-13T21:51:09.941Z,95.99
2023-04-13T21:53:36.827Z,97.02
2023-04-13T21:56:03.647Z,97.94
2023-04-13T21:58:43.558Z,96.75
2023-04-13T22:01:10.877Z,96.15
2023-04-13T22:03:38.394Z,95.69
2023-04-13T22:06:06.990Z,96.90
2023-04-13T22:08:33.564Z,96.65
2023-04-13T22:11:00.204Z,94.30
2023-04-13T22:13:26.889Z,95.03
2023-04-13T22:15:53.662Z,93.52
2023-04-13T22:18:20.220Z,97.66
2023-04-13T22:20:46.765Z,98.33
2023-04-13T22:23:13.295Z,97.15
2023-04-13T22:25:39.863Z,96.69
2023-04-13T22:28:06.364Z,97.32
2023-04-13T22:30:32.833Z,97.56
2023-04-13T22:32:59.365Z,99.60
2023-04-13T22:35:26.616Z,98.00
2023-04-13T22:37:53.316Z,98.71
2023-04-13T22:40:19.861Z,97.14
2023-04-13T22:42:46.393Z,97.53
2023-04-13T22:45:12.964Z,99.03
2023-04-13T22:47:39.435Z,99.21
2023-04-13T22:50:06.534Z,98.95
2023-04-13T22:52:34.903Z,98.32
2023-04-13T22:55:01.428Z,98.14
2023-04-13T22:57:27.918Z,98.06
2023-04-13T22:59:54.412Z,97.13
2023-04-13T23:02:21.058Z,96.17
2023-04-13T23:04:47.806Z,96.86
2023-04-13T23:07:14.306Z,96.92
2023-04-13T23:09:40.785Z,96.00
2023-04-13T23:12:07.356Z,94.08
2023-04-13T23:14:33.849Z,96.41
2023-04-13T23:17:00.452Z,96.71
2023-04-13T23:19:26.921Z,96.66
2023-04-13T23:21:53.356Z,96.84
2023-04-13T23:24:19.919Z,96.59
2023-04-13T23:26:46.390Z,96.33
2023-04-13T23:29:13.005Z,95.03
2023-04-13T23:31:39.619Z,94.77
2023-04-13T23:34:06.424Z,94.69
2023-04-13T23:36:33.789Z,91.76
2023-04-13T23:39:00.468Z,94.58
2023-04-13T23:41:27.170Z,94.20
2023-04-13T23:43:53.730Z,93.83
2023-04-13T23:46:20.304Z,93.41
2023-04-13T23:48:46.877Z,94.55
2023-04-13T23:51:13.454Z,95.07
2023-04-13T23:53:39.998Z,93.86
2023-04-13T23:56:07.020Z,93.79
2023-04-13T23:58:33.824Z,93.55
